createdAt,value
2024-04-23T00:00:08.446Z,555.0000
2024-04-23T00:01:10.741Z,554.0000
2024-04-23T00:02:12.952Z,556.0000
2024-04-23T00:03:15.205Z,559.0000
2024-04-23T00:04:17.436Z,562.0000
2024-04-23T00:05:17.576Z,562.0000
2024-04-23T00:06:19.690Z,568.0000
2024-04-23T00:07:21.916Z,565.0000
2024-04-23T00:08:24.156Z,561.0000
2024-04-23T00:09:26.434Z,560.0000
2024-04-23T00:10:28.695Z,558.0000
2024-04-23T00:11:30.937Z,555.0000
2024-04-23T00:12:33.150Z,550.0000
2024-04-23T00:13:35.516Z,552.0000
2024-04-23T00:14:35.547Z,549.0000
2024-04-23T00:15:37.775Z,548.0000
2024-04-23T00:16:40.041Z,548.0000
2024-04-23T00:17:42.304Z,548.0000
2024-04-23T00:18:44.600Z,550.0000
2024-04-23T00:19:46.843Z,552.0000
2024-04-23T00:20:49.047Z,551.0000
2024-04-23T00:21:51.293Z,549.0000
2024-04-23T00:22:53.611Z,548.0000
2024-04-23T00:23:55.816Z,544.0000
2024-04-23T00:24:55.911Z,547.0000
2024-04-23T00:25:58.289Z,546.0000
2024-04-23T00:27:00.556Z,547.0000
2024-04-23T00:28:02.678Z,546.0000
2024-04-23T00:29:04.991Z,544.0000
2024-04-23T00:30:07.201Z,546.0000
2024-04-23T00:31:09.438Z,546.0000
2024-04-23T00:32:11.747Z,548.0000
2024-04-23T00:33:14.027Z,550.0000
2024-04-23T00:34:14.011Z,549.0000
2024-04-23T00:35:16.298Z,547.0000
2024-04-23T00:36:18.500Z,547.0000
2024-04-23T00:37:20.762Z,548.0000
2024-04-23T00:38:22.998Z,555.0000
2024-04-23T00:39:25.206Z,552.0000
2024-04-23T00:40:27.553Z,550.0000
2024-04-23T00:41:29.728Z,553.0000
2024-04-23T00:42:31.997Z,556.0000
2024-04-23T00:43:32.110Z,556.0000
2024-04-23T00:44:34.330Z,555.0000
2024-04-23T00:45:36.595Z,554.0000
2024-04-23T00:46:38.954Z,554.0000
2024-04-23T00:47:41.208Z,554.0000
2024-04-23T00:48:43.277Z,554.0000
2024-04-23T00:49:45.474Z,552.0000
2024-04-23T00:50:47.656Z,553.0000
2024-04-23T00:51:49.852Z,554.0000
2024-04-23T00:52:52.073Z,550.0000
2024-04-23T00:53:54.300Z,545.0000
2024-04-23T00:54:56.544Z,545.0000
2024-04-23T00:55:58.891Z,547.0000
2024-04-23T00:57:00.954Z,548.0000
2024-04-23T00:58:01.024Z,550.0000
2024-04-23T00:59:03.356Z,551.0000
2024-04-23T01:00:05.467Z,549.0000
2024-04-23T01:01:07.689Z,544.0000
2024-04-23T01:02:09.905Z,551.0000
2024-04-23T01:03:12.184Z,546.0000
2024-04-23T01:04:14.296Z,542.0000
2024-04-23T01:05:16.498Z,541.0000
2024-04-23T01:06:18.726Z,539.0000
2024-04-23T01:07:20.948Z,536.0000
2024-04-23T01:08:23.121Z,534.0000
2024-04-23T01:09:25.366Z,536.0000
2024-04-23T01:10:27.622Z,534.0000
2024-04-23T01:11:29.851Z,537.0000
2024-04-23T01:12:31.975Z,537.0000
2024-04-23T01:13:32.081Z,535.0000
2024-04-23T01:14:34.288Z,534.0000
2024-04-23T01:15:36.480Z,537.0000
2024-04-23T01:16:38.779Z,540.0000
2024-04-23T01:17:41.062Z,540.0000
2024-04-23T01:18:43.066Z,539.0000
2024-04-23T01:19:45.286Z,536.0000
2024-04-23T01:20:47.470Z,534.0000
2024-04-23T01:21:49.680Z,530.0000
2024-04-23T01:22:51.895Z,532.0000
2024-04-23T01:23:54.083Z,533.0000
2024-04-23T01:24:56.270Z,535.0000
2024-04-23T01:25:58.588Z,534.0000
2024-04-23T01:27:00.819Z,531.0000
2024-04-23T01:28:00.924Z,526.0000
2024-04-23T01:29:03.222Z,525.0000
2024-04-23T01:30:05.406Z,526.0000
2024-04-23T01:31:07.665Z,530.0000
2024-04-23T01:32:09.976Z,530.0000
2024-04-23T01:33:12.290Z,533.0000
2024-04-23T01:34:14.466Z,530.0000
2024-04-23T01:35:16.698Z,528.0000
2024-04-23T01:36:18.987Z,531.0000
2024-04-23T01:37:19.069Z,533.0000
2024-04-23T01:38:21.191Z,535.0000
2024-04-23T01:39:23.323Z,531.0000
2024-04-23T01:40:25.555Z,532.0000
2024-04-23T01:41:27.744Z,532.0000
2024-04-23T01:42:30.030Z,532.0000
2024-04-23T01:43:32.274Z,534.0000
2024-04-23T01:44:34.502Z,532.0000
2024-04-23T01:45:36.774Z,528.0000
2024-04-23T01:46:39.072Z,532.0000
2024-04-23T01:47:39.209Z,533.0000
2024-04-23T01:48:41.400Z,531.0000
2024-04-23T01:49:43.683Z,530.0000
2024-04-23T01:50:45.948Z,530.0000
2024-04-23T01:51:48.219Z,529.0000
2024-04-23T01:52:50.546Z,528.0000
2024-04-23T01:53:52.777Z,528.0000
2024-04-23T01:54:55.021Z,529.0000
2024-04-23T01:55:55.228Z,528.0000
2024-04-23T01:56:57.400Z,527.0000
2024-04-23T01:57:59.693Z,529.0000
2024-04-23T01:59:01.908Z,526.0000
2024-04-23T02:00:04.092Z,525.0000
2024-04-23T02:01:06.422Z,525.0000
2024-04-23T02:02:08.618Z,526.0000
2024-04-23T02:03:10.862Z,525.0000
2024-04-23T02:04:12.978Z,526.0000
2024-04-23T02:05:15.209Z,523.0000
2024-04-23T02:06:17.435Z,522.0000
2024-04-23T02:07:19.668Z,521.0000
2024-04-23T02:08:19.779Z,521.0000
2024-04-23T02:09:21.989Z,522.0000
2024-04-23T02:10:24.251Z,520.0000
2024-04-23T02:11:26.607Z,521.0000
2024-04-23T02:12:28.717Z,524.0000
2024-04-23T02:13:31.060Z,522.0000
2024-04-23T02:14:33.213Z,518.0000
2024-04-23T02:15:35.487Z,524.0000
2024-04-23T02:16:37.790Z,522.0000
2024-04-23T02:17:40.167Z,523.0000
2024-04-23T02:18:40.264Z,522.0000
2024-04-23T02:19:42.421Z,522.0000
2024-04-23T02:20:44.557Z,519.0000
2024-04-23T02:21:46.811Z,517.0000
2024-04-23T02:22:49.120Z,517.0000
2024-04-23T02:23:51.365Z,517.0000
2024-04-23T02:24:53.636Z,515.0000
2024-04-23T02:25:55.852Z,519.0000
2024-04-23T02:26:58.086Z,518.0000
2024-04-23T02:27:58.170Z,517.0000
2024-04-23T02:29:00.527Z,518.0000
2024-04-23T02:30:02.774Z,521.0000
2024-04-23T02:31:05.008Z,522.0000
2024-04-23T02:32:07.338Z,520.0000
2024-04-23T02:33:09.556Z,522.0000
2024-04-23T02:34:11.795Z,524.0000
2024-04-23T02:35:14.057Z,525.0000
2024-04-23T02:36:14.157Z,522.0000
2024-04-23T02:37:16.428Z,520.0000
2024-04-23T02:38:18.699Z,522.0000
2024-04-23T02:39:20.988Z,522.0000
2024-04-23T02:40:23.213Z,525.0000
2024-04-23T02:41:25.470Z,525.0000
2024-04-23T02:42:27.777Z,527.0000
2024-04-23T02:43:30.076Z,525.0000
2024-04-23T02:44:32.264Z,523.0000
2024-04-23T02:45:32.309Z,521.0000
2024-04-23T02:46:34.540Z,522.0000
2024-04-23T02:47:36.934Z,522.0000
2024-04-23T02:49:47.696Z,526.0000
2024-04-23T02:50:49.770Z,521.0000
2024-04-23T02:51:51.964Z,517.0000
2024-04-23T02:52:54.130Z,517.0000
2024-04-23T02:53:56.305Z,516.0000
2024-04-23T02:54:58.460Z,515.0000
2024-04-23T02:56:00.723Z,518.0000
2024-04-23T02:57:02.853Z,520.0000
2024-04-23T02:58:05.100Z,518.0000
2024-04-23T02:59:07.319Z,523.0000
2024-04-23T03:00:07.424Z,524.0000
2024-04-23T03:01:09.657Z,523.0000
2024-04-23T03:02:11.890Z,523.0000
2024-04-23T03:03:14.099Z,522.0000
2024-04-23T03:04:16.183Z,521.0000
2024-04-23T03:05:18.363Z,520.0000
2024-04-23T03:06:18.350Z,526.0000
2024-04-23T03:07:20.536Z,527.0000
2024-04-23T03:08:22.680Z,527.0000
2024-04-23T03:09:24.925Z,525.0000
2024-04-23T03:10:27.205Z,526.0000
2024-04-23T03:11:29.454Z,522.0000
2024-04-23T03:12:31.638Z,518.0000
2024-04-23T03:13:33.840Z,519.0000
2024-04-23T03:14:35.979Z,514.0000
2024-04-23T03:15:38.154Z,520.0000
2024-04-23T03:16:40.382Z,523.0000
2024-04-23T03:17:42.578Z,519.0000
2024-04-23T03:18:42.596Z,519.0000
2024-04-23T03:19:44.891Z,518.0000
2024-04-23T03:20:47.018Z,522.0000
2024-04-23T03:21:49.219Z,523.0000
2024-04-23T03:22:51.499Z,524.0000
2024-04-23T03:23:53.669Z,524.0000
2024-04-23T03:24:55.884Z,523.0000
2024-04-23T03:25:58.155Z,520.0000
2024-04-23T03:27:00.305Z,520.0000
2024-04-23T03:28:02.519Z,522.0000
2024-04-23T03:29:04.811Z,524.0000
2024-04-23T03:30:06.914Z,526.0000
2024-04-23T03:31:09.044Z,528.0000
2024-04-23T03:32:11.306Z,525.0000
2024-04-23T03:33:13.528Z,523.0000
2024-04-23T03:34:15.595Z,524.0000
2024-04-23T03:35:17.786Z,523.0000
2024-04-23T03:36:18.129Z,523.0000
2024-04-23T03:37:19.934Z,523.0000
2024-04-23T03:38:22.035Z,520.0000
2024-04-23T03:39:24.165Z,519.0000
2024-04-23T03:40:26.398Z,518.0000
2024-04-23T03:41:28.404Z,519.0000
2024-04-23T03:42:30.608Z,519.0000
2024-04-23T03:43:32.765Z,522.0000
2024-04-23T03:44:37.426Z,522.0000
2024-04-23T03:45:37.106Z,522.0000
2024-04-23T03:46:39.288Z,523.0000
2024-04-23T03:47:41.515Z,523.0000
2024-04-23T03:48:43.514Z,521.0000
2024-04-23T03:49:45.716Z,520.0000
2024-04-23T03:50:47.750Z,519.0000
2024-04-23T03:51:49.921Z,520.0000
2024-04-23T03:52:52.159Z,524.0000
2024-04-23T03:53:54.289Z,525.0000
2024-04-23T03:54:56.526Z,521.0000
2024-04-23T03:55:58.839Z,522.0000
2024-04-23T03:57:01.009Z,525.0000
2024-04-23T03:58:01.128Z,524.0000
2024-04-23T03:59:03.405Z,522.0000
2024-04-23T04:00:05.616Z,520.0000
2024-04-23T04:01:07.832Z,521.0000
2024-04-23T04:02:10.086Z,521.0000
2024-04-23T04:03:12.327Z,519.0000
2024-04-23T04:04:14.431Z,519.0000
2024-04-23T04:05:16.618Z,517.0000
2024-04-23T04:06:18.827Z,487.0000
2024-04-23T04:07:21.013Z,487.0000
2024-04-23T04:08:23.264Z,476.0000
2024-04-23T04:09:25.450Z,474.0000
2024-04-23T04:10:27.684Z,464.0000
2024-04-23T04:11:27.832Z,472.0000
2024-04-23T04:12:30.067Z,481.0000
2024-04-23T04:13:32.413Z,478.0000
2024-04-23T04:14:34.619Z,480.0000
2024-04-23T04:15:36.903Z,496.0000
2024-04-23T04:16:39.204Z,490.0000
2024-04-23T04:17:42.086Z,501.0000
2024-04-23T04:18:43.807Z,541.0000
2024-04-23T04:19:43.828Z,701.0000
2024-04-23T04:20:46.088Z,834.0000
2024-04-23T04:21:48.298Z,842.0000
2024-04-23T04:22:50.572Z,823.0000
2024-04-23T04:23:52.834Z,802.0000
2024-04-23T04:24:55.049Z,827.0000
2024-04-23T04:25:57.342Z,859.0000
2024-04-23T04:26:59.515Z,855.0000
2024-04-23T04:28:04.733Z,860.0000
2024-04-23T04:30:05.225Z,840.0000
2024-04-23T04:31:05.267Z,819.0000
2024-04-23T04:32:07.545Z,779.0000
2024-04-23T04:33:09.747Z,756.0000
2024-04-23T04:34:11.876Z,736.0000
2024-04-23T04:35:14.128Z,726.0000
2024-04-23T04:36:16.301Z,720.0000
2024-04-23T04:37:18.533Z,712.0000
2024-04-23T04:38:20.748Z,710.0000
2024-04-23T04:39:22.948Z,704.0000
2024-04-23T04:40:23.099Z,700.0000
2024-04-23T04:41:28.790Z,697.0000
2024-04-23T04:42:27.536Z,695.0000
2024-04-23T04:43:29.738Z,694.0000
2024-04-23T04:44:31.960Z,686.0000
2024-04-23T04:45:32.057Z,685.0000
2024-04-23T04:46:34.379Z,683.0000
2024-04-23T04:47:36.723Z,685.0000
2024-04-23T04:48:38.897Z,683.0000
2024-04-23T04:49:41.010Z,681.0000
2024-04-23T04:50:43.273Z,679.0000
2024-04-23T04:51:45.512Z,680.0000
2024-04-23T04:52:47.859Z,682.0000
2024-04-23T04:53:47.871Z,683.0000
2024-04-23T04:54:50.141Z,685.0000
2024-04-23T04:55:52.434Z,687.0000
2024-04-23T04:56:54.602Z,692.0000
2024-04-23T04:57:56.811Z,698.0000
2024-04-23T04:58:57.023Z,703.0000
2024-04-23T04:59:59.150Z,710.0000
2024-04-23T05:01:01.449Z,713.0000
2024-04-23T05:02:03.703Z,710.0000
2024-04-23T05:03:05.850Z,713.0000
2024-04-23T05:04:08.168Z,718.0000
2024-04-23T05:05:10.495Z,722.0000
2024-04-23T05:06:12.718Z,729.0000
2024-04-23T05:07:12.702Z,729.0000
2024-04-23T05:08:14.913Z,730.0000
2024-04-23T05:09:17.109Z,729.0000
2024-04-23T05:10:19.326Z,732.0000
2024-04-23T05:11:21.590Z,727.0000
2024-04-23T05:12:23.763Z,726.0000
2024-04-23T05:13:25.898Z,730.0000
2024-04-23T05:14:28.051Z,739.0000
2024-04-23T05:15:30.211Z,720.0000
2024-04-23T05:16:32.507Z,495.0000
2024-04-23T05:17:34.736Z,511.0000
2024-04-23T05:18:37.634Z,622.0000
2024-04-23T05:19:38.815Z,675.0000
2024-04-23T05:20:40.883Z,725.0000
2024-04-23T05:21:43.046Z,737.0000
2024-04-23T05:22:45.253Z,741.0000
2024-04-23T05:23:47.395Z,748.0000
2024-04-23T05:24:49.545Z,748.0000
2024-04-23T05:25:51.737Z,749.0000
2024-04-23T05:26:53.910Z,752.0000
2024-04-23T05:27:56.067Z,749.0000
2024-04-23T05:28:58.263Z,755.0000
2024-04-23T05:30:00.517Z,760.0000
2024-04-23T05:31:02.652Z,763.0000
2024-04-23T05:32:04.979Z,759.0000
2024-04-23T05:33:07.341Z,749.0000
2024-04-23T05:34:09.479Z,748.0000
2024-04-23T05:35:11.861Z,757.0000
2024-04-23T05:36:14.057Z,760.0000
2024-04-23T05:37:16.355Z,762.0000
2024-04-23T05:38:18.634Z,764.0000
2024-04-23T05:39:20.816Z,769.0000
2024-04-23T05:40:23.044Z,773.0000
2024-04-23T05:41:25.280Z,774.0000
2024-04-23T05:42:27.582Z,775.0000
2024-04-23T05:43:29.827Z,772.0000
2024-04-23T05:44:32.085Z,776.0000
2024-04-23T05:45:34.350Z,778.0000
2024-04-23T05:46:36.632Z,779.0000
2024-04-23T05:47:38.953Z,780.0000
2024-04-23T05:48:41.184Z,781.0000
2024-04-23T05:49:41.344Z,783.0000
2024-04-23T05:50:43.584Z,782.0000
2024-04-23T05:51:45.832Z,779.0000
2024-04-23T05:52:48.116Z,778.0000
2024-04-23T05:53:48.216Z,776.0000
2024-04-23T05:54:50.445Z,780.0000
2024-04-23T05:55:52.698Z,781.0000
2024-04-23T05:56:54.881Z,782.0000
2024-04-23T05:57:57.154Z,782.0000
2024-04-23T05:58:59.455Z,782.0000
2024-04-23T06:00:01.690Z,782.0000
2024-04-23T06:01:04.069Z,782.0000
2024-04-23T06:02:04.257Z,781.0000
2024-04-23T06:03:06.489Z,781.0000
2024-04-23T06:04:08.570Z,784.0000
2024-04-23T06:05:10.825Z,784.0000
2024-04-23T06:06:12.934Z,783.0000
2024-04-23T06:07:12.980Z,785.0000
2024-04-23T06:08:15.342Z,785.0000
2024-04-23T06:09:17.412Z,783.0000
2024-04-23T06:10:19.638Z,788.0000
2024-04-23T06:11:21.929Z,787.0000
2024-04-23T06:12:21.954Z,785.0000
2024-04-23T06:14:50.119Z,777.0000
2024-04-23T06:15:50.142Z,773.0000
2024-04-23T06:16:52.336Z,771.0000
2024-04-23T06:17:54.772Z,771.0000
2024-04-23T06:18:56.841Z,906.0000
2024-04-23T06:19:59.062Z,844.0000
2024-04-23T06:21:01.243Z,826.0000
2024-04-23T06:22:03.455Z,820.0000
2024-04-23T06:23:05.830Z,816.0000
2024-04-23T06:24:07.791Z,814.0000
2024-04-23T06:25:09.975Z,817.0000
2024-04-23T06:26:12.225Z,817.0000
2024-04-23T06:27:14.376Z,822.0000
2024-04-23T06:28:16.525Z,826.0000
2024-04-23T06:29:18.690Z,826.0000
2024-04-23T06:30:20.944Z,825.0000
2024-04-23T06:31:23.096Z,821.0000
2024-04-23T06:32:25.556Z,813.0000
2024-04-23T06:33:27.569Z,810.0000
2024-04-23T06:34:27.572Z,809.0000
2024-04-23T06:35:29.830Z,807.0000
2024-04-23T06:36:32.087Z,803.0000
2024-04-23T06:37:34.389Z,802.0000
2024-04-23T06:38:36.644Z,801.0000
2024-04-23T06:39:38.800Z,800.0000
2024-04-23T06:40:41.058Z,796.0000
2024-04-23T06:41:43.191Z,794.0000
2024-04-23T06:42:45.348Z,795.0000
2024-04-23T06:43:47.579Z,794.0000
2024-04-23T06:44:55.676Z,794.0000
2024-04-23T06:45:55.559Z,794.0000
2024-04-23T06:46:52.110Z,794.0000
2024-04-23T06:47:54.280Z,793.0000
2024-04-23T06:48:56.411Z,792.0000
2024-04-23T06:49:58.712Z,896.0000
2024-04-23T06:51:00.818Z,837.0000
2024-04-23T06:52:03.023Z,829.0000
2024-04-23T06:53:07.724Z,828.0000
2024-04-23T06:54:07.433Z,824.0000
2024-04-23T06:55:09.619Z,799.0000
2024-04-23T06:56:11.837Z,784.0000
2024-04-23T06:57:14.015Z,778.0000
2024-04-23T06:58:16.198Z,772.0000
2024-04-23T06:59:16.271Z,767.0000
2024-04-23T07:00:18.395Z,774.0000
2024-04-23T07:01:20.576Z,776.0000
2024-04-23T07:02:22.897Z,774.0000
2024-04-23T07:03:24.914Z,773.0000
2024-04-23T07:04:27.063Z,768.0000
2024-04-23T07:05:29.270Z,748.0000
2024-04-23T07:06:31.454Z,736.0000
2024-04-23T07:07:33.623Z,720.0000
2024-04-23T07:08:35.758Z,708.0000
2024-04-23T07:09:37.906Z,703.0000
2024-04-23T07:10:40.061Z,709.0000
2024-04-23T07:11:42.241Z,697.0000
2024-04-23T07:12:44.364Z,698.0000
2024-04-23T07:13:46.578Z,700.0000
2024-04-23T07:14:48.749Z,697.0000
2024-04-23T07:15:50.923Z,700.0000
2024-04-23T07:16:53.179Z,702.0000
2024-04-23T07:17:55.348Z,702.0000
2024-04-23T07:19:02.101Z,700.0000
2024-04-23T07:19:59.644Z,697.0000
2024-04-23T07:21:01.796Z,692.0000
2024-04-23T07:22:01.835Z,695.0000
2024-04-23T07:23:04.045Z,688.0000
2024-04-23T07:24:06.196Z,689.0000
2024-04-23T07:25:08.368Z,693.0000
2024-04-23T07:26:10.577Z,688.0000
2024-04-23T07:27:12.740Z,687.0000
2024-04-23T07:28:14.905Z,688.0000
2024-04-23T07:29:17.090Z,686.0000
2024-04-23T07:30:19.294Z,870.0000
2024-04-23T07:31:21.445Z,912.0000
2024-04-23T07:32:23.735Z,959.0000
2024-04-23T07:33:25.944Z,929.0000
2024-04-23T07:34:28.019Z,859.0000
2024-04-23T07:35:30.382Z,782.0000
2024-04-23T07:36:32.405Z,772.0000
2024-04-23T07:37:34.654Z,766.0000
2024-04-23T07:38:36.833Z,762.0000
2024-04-23T07:39:39.061Z,759.0000
2024-04-23T07:40:41.256Z,754.0000
2024-04-23T07:41:43.441Z,752.0000
2024-04-23T07:43:58.887Z,752.0000
2024-04-23T07:45:00.781Z,752.0000
2024-04-23T07:46:02.958Z,749.0000
2024-04-23T07:47:05.288Z,756.0000
2024-04-23T07:48:07.409Z,764.0000
2024-04-23T07:49:09.574Z,767.0000
2024-04-23T07:50:11.770Z,768.0000
2024-04-23T07:51:13.972Z,766.0000
2024-04-23T07:52:16.205Z,764.0000
2024-04-23T07:53:16.301Z,762.0000
2024-04-23T07:54:18.556Z,758.0000
2024-04-23T07:55:20.775Z,757.0000
2024-04-23T07:56:23.030Z,753.0000
2024-04-23T07:57:25.243Z,744.0000
2024-04-23T07:58:27.494Z,731.0000
2024-04-23T07:59:29.763Z,733.0000
2024-04-23T08:00:31.987Z,727.0000
2024-04-23T08:01:34.293Z,726.0000
2024-04-23T08:02:36.500Z,722.0000
2024-04-23T08:03:36.595Z,718.0000
2024-04-23T08:04:38.860Z,714.0000
2024-04-23T08:05:41.014Z,711.0000
2024-04-23T08:06:43.264Z,708.0000
2024-04-23T08:07:45.470Z,708.0000
2024-04-23T08:08:47.677Z,704.0000
2024-04-23T08:09:49.881Z,701.0000
2024-04-23T08:10:52.186Z,700.0000
2024-04-23T08:11:54.330Z,700.0000
2024-04-23T08:12:56.506Z,697.0000
2024-04-23T08:13:58.746Z,690.0000
2024-04-23T08:15:00.938Z,690.0000
2024-04-23T08:16:03.069Z,691.0000
2024-04-23T08:17:05.383Z,694.0000
2024-04-23T08:18:07.606Z,697.0000
2024-04-23T08:19:07.584Z,699.0000
2024-04-23T08:20:09.840Z,700.0000
2024-04-23T08:21:11.947Z,703.0000
2024-04-23T08:22:14.158Z,702.0000
2024-04-23T08:23:16.376Z,711.0000
2024-04-23T08:24:18.598Z,715.0000
2024-04-23T08:25:20.816Z,718.0000
2024-04-23T08:26:23.015Z,717.0000
2024-04-23T08:27:25.219Z,710.0000
2024-04-23T08:28:27.423Z,703.0000
2024-04-23T08:29:29.656Z,699.0000
2024-04-23T08:30:31.924Z,696.0000
2024-04-23T08:31:34.156Z,696.0000
2024-04-23T08:32:36.396Z,699.0000
2024-04-23T08:33:36.518Z,702.0000
2024-04-23T08:34:38.709Z,707.0000
2024-04-23T08:35:40.973Z,711.0000
2024-04-23T08:36:43.134Z,708.0000
2024-04-23T08:37:45.368Z,706.0000
2024-04-23T08:38:47.541Z,706.0000
2024-04-23T08:39:49.759Z,699.0000
2024-04-23T08:40:52.033Z,693.0000
2024-04-23T08:41:54.186Z,687.0000
2024-04-23T08:42:56.314Z,683.0000
2024-04-23T08:43:58.552Z,682.0000
2024-04-23T08:45:00.728Z,682.0000
2024-04-23T08:46:02.938Z,683.0000
2024-04-23T08:47:05.250Z,683.0000
2024-04-23T08:48:07.367Z,686.0000
2024-04-23T08:49:07.399Z,685.0000
2024-04-23T08:50:09.730Z,682.0000
2024-04-23T08:51:11.918Z,681.0000
2024-04-23T08:52:14.112Z,681.0000
2024-04-23T08:53:16.352Z,678.0000
2024-04-23T08:54:20.669Z,681.0000
2024-04-23T08:55:20.754Z,683.0000
2024-04-23T08:56:22.999Z,1279.0000
2024-04-23T08:57:25.204Z,982.0000
2024-04-23T08:58:27.446Z,885.0000
2024-04-23T08:59:29.691Z,807.0000
2024-04-23T09:00:35.157Z,789.0000
2024-04-23T09:01:32.227Z,785.0000
2024-04-23T09:02:34.426Z,767.0000
2024-04-23T09:03:36.734Z,767.0000
2024-04-23T09:04:38.992Z,774.0000
2024-04-23T09:05:41.256Z,754.0000
2024-04-23T09:06:43.586Z,767.0000
2024-04-23T09:07:45.811Z,763.0000
2024-04-23T09:08:45.910Z,784.0000
2024-04-23T09:09:48.186Z,772.0000
2024-04-23T09:10:50.467Z,771.0000
2024-04-23T09:11:52.845Z,775.0000
2024-04-23T09:12:55.049Z,785.0000
2024-04-23T09:13:57.387Z,767.0000
2024-04-23T09:14:59.612Z,778.0000
2024-04-23T09:16:01.874Z,783.0000
2024-04-23T09:17:02.184Z,781.0000
2024-04-23T09:18:04.353Z,780.0000
2024-04-23T09:19:04.402Z,781.0000
2024-04-23T09:20:06.852Z,782.0000
2024-04-23T09:21:09.045Z,776.0000
2024-04-23T09:22:11.205Z,774.0000
2024-04-23T09:23:13.436Z,775.0000
2024-04-23T09:24:13.543Z,777.0000
2024-04-23T09:25:15.855Z,776.0000
2024-04-23T09:26:18.225Z,770.0000
2024-04-23T09:27:20.480Z,779.0000
2024-04-23T09:28:23.101Z,793.0000
2024-04-23T09:29:25.124Z,809.0000
2024-04-23T09:30:27.249Z,829.0000
2024-04-23T09:31:29.520Z,815.0000
2024-04-23T09:32:31.785Z,812.0000
2024-04-23T09:33:31.726Z,820.0000
2024-04-23T09:34:38.189Z,812.0000
2024-04-23T09:35:36.102Z,806.0000
2024-04-23T09:36:38.274Z,798.0000
2024-04-23T09:37:40.512Z,794.0000
2024-04-23T09:38:42.666Z,794.0000
2024-04-23T09:39:46.766Z,801.0000
2024-04-23T09:40:47.066Z,816.0000
2024-04-23T09:41:49.315Z,822.0000
2024-04-23T09:42:51.544Z,835.0000
2024-04-23T09:43:53.881Z,834.0000
2024-04-23T09:44:56.026Z,826.0000
2024-04-23T09:45:58.290Z,800.0000
2024-04-23T09:47:00.627Z,786.0000
2024-04-23T09:48:00.755Z,787.0000
2024-04-23T09:49:02.931Z,785.0000
2024-04-23T09:50:05.235Z,786.0000
2024-04-23T09:51:07.425Z,790.0000
2024-04-23T09:52:09.691Z,790.0000
2024-04-23T09:53:12.136Z,791.0000
2024-04-23T09:54:14.187Z,792.0000
2024-04-23T09:55:16.455Z,1052.0000
2024-04-23T09:56:16.589Z,1059.0000
2024-04-23T09:57:18.819Z,994.0000
2024-04-23T09:58:21.050Z,878.0000
2024-04-23T09:59:23.233Z,800.0000
2024-04-23T10:00:25.431Z,795.0000
2024-04-23T10:01:27.694Z,794.0000
2024-04-23T10:02:30.010Z,796.0000
2024-04-23T10:03:32.120Z,790.0000
2024-04-23T10:04:34.467Z,790.0000
2024-04-23T10:05:36.550Z,794.0000
2024-04-23T10:06:38.727Z,795.0000
2024-04-23T10:07:40.966Z,796.0000
2024-04-23T10:08:43.184Z,795.0000
2024-04-23T10:09:45.375Z,790.0000
2024-04-23T10:10:45.514Z,796.0000
2024-04-23T10:11:47.638Z,956.0000
2024-04-23T10:12:49.806Z,933.0000
2024-04-23T10:13:52.072Z,884.0000
2024-04-23T10:14:54.313Z,854.0000
2024-04-23T10:15:56.620Z,839.0000
2024-04-23T10:16:58.906Z,826.0000
2024-04-23T10:18:01.251Z,819.0000
2024-04-23T10:19:03.467Z,812.0000
2024-04-23T10:20:05.721Z,811.0000
2024-04-23T10:21:05.802Z,809.0000
2024-04-23T10:22:08.043Z,813.0000
2024-04-23T10:23:10.312Z,808.0000
2024-04-23T10:24:12.500Z,805.0000
2024-04-23T10:25:14.711Z,804.0000
2024-04-23T10:26:17.037Z,800.0000
2024-04-23T10:27:19.199Z,801.0000
2024-04-23T10:28:21.439Z,803.0000
2024-04-23T10:29:23.672Z,802.0000
2024-04-23T10:30:25.901Z,799.0000
2024-04-23T10:31:26.013Z,798.0000
2024-04-23T10:32:28.565Z,797.0000
2024-04-23T10:33:30.647Z,797.0000
2024-04-23T10:34:32.968Z,796.0000
2024-04-23T10:35:35.196Z,795.0000
2024-04-23T10:36:37.483Z,798.0000
2024-04-23T10:37:39.853Z,798.0000
2024-04-23T10:38:39.900Z,799.0000
2024-04-23T10:39:42.207Z,795.0000
2024-04-23T10:40:52.072Z,796.0000
2024-04-23T10:41:46.788Z,794.0000
2024-04-23T10:42:49.045Z,795.0000
2024-04-23T10:43:51.371Z,791.0000
2024-04-23T10:44:53.604Z,786.0000
2024-04-23T10:45:55.865Z,784.0000
2024-04-23T10:46:56.018Z,778.0000
2024-04-23T10:47:59.587Z,777.0000
2024-04-23T10:49:00.545Z,774.0000
2024-04-23T10:50:02.788Z,770.0000
2024-04-23T10:51:05.011Z,772.0000
2024-04-23T10:52:07.274Z,775.0000
2024-04-23T10:53:09.815Z,776.0000
2024-04-23T10:54:12.254Z,746.0000
2024-04-23T10:56:10.124Z,749.0000
2024-04-23T10:57:10.121Z,751.0000
2024-04-23T10:58:12.340Z,759.0000
2024-04-23T10:59:14.672Z,752.0000
2024-04-23T11:00:16.976Z,752.0000
2024-04-23T11:01:19.251Z,747.0000
2024-04-23T11:02:21.409Z,748.0000
2024-04-23T11:03:23.851Z,752.0000
2024-04-23T11:04:25.852Z,750.0000
2024-04-23T11:05:27.929Z,748.0000
2024-04-23T11:06:30.118Z,745.0000
2024-04-23T11:07:32.344Z,742.0000
2024-04-23T11:08:34.500Z,741.0000
2024-04-23T11:09:36.665Z,746.0000
2024-04-23T11:10:38.803Z,741.0000
2024-04-23T11:11:38.883Z,737.0000
2024-04-23T11:12:40.940Z,738.0000
2024-04-23T11:13:41.084Z,738.0000
2024-04-23T11:14:43.166Z,735.0000
2024-04-23T11:15:45.404Z,736.0000
2024-04-23T11:16:47.689Z,736.0000
2024-04-23T11:17:50.106Z,736.0000
2024-04-23T11:18:52.061Z,735.0000
2024-04-23T11:19:54.577Z,734.0000
2024-04-23T11:20:56.631Z,731.0000
2024-04-23T11:21:58.815Z,731.0000
2024-04-23T11:23:01.134Z,733.0000
2024-04-23T11:24:03.321Z,728.0000
2024-04-23T11:25:05.545Z,729.0000
2024-04-23T11:26:05.701Z,731.0000
2024-04-23T11:27:07.897Z,730.0000
2024-04-23T11:28:10.170Z,726.0000
2024-04-23T11:29:12.440Z,725.0000
2024-04-23T11:30:14.572Z,726.0000
2024-04-23T11:31:16.784Z,1106.0000
2024-04-23T11:32:19.111Z,1129.0000
2024-04-23T11:33:21.561Z,1054.0000
2024-04-23T11:34:23.563Z,802.0000
2024-04-23T11:35:25.790Z,776.0000
2024-04-23T11:36:25.876Z,756.0000
2024-04-23T11:37:28.133Z,747.0000
2024-04-23T11:38:30.323Z,741.0000
2024-04-23T11:39:32.577Z,739.0000
2024-04-23T11:40:34.858Z,736.0000
2024-04-23T11:41:37.082Z,731.0000
2024-04-23T11:42:39.368Z,730.0000
2024-04-23T11:43:41.637Z,729.0000
2024-04-23T11:44:43.879Z,730.0000
2024-04-23T11:45:44.003Z,727.0000
2024-04-23T11:46:46.332Z,729.0000
2024-04-23T11:47:48.743Z,967.0000
2024-04-23T11:48:50.844Z,980.0000
2024-04-23T11:49:53.150Z,867.0000
2024-04-23T11:50:55.402Z,802.0000
2024-04-23T11:51:57.688Z,786.0000
2024-04-23T11:52:59.971Z,776.0000
2024-04-23T11:54:00.101Z,773.0000
2024-04-23T11:55:02.403Z,767.0000
2024-04-23T11:56:04.832Z,762.0000
2024-04-23T11:57:07.011Z,764.0000
2024-04-23T11:58:09.372Z,763.0000
2024-04-23T11:59:11.687Z,761.0000
2024-04-23T12:00:11.778Z,758.0000
2024-04-23T12:01:14.074Z,761.0000
2024-04-23T12:02:16.249Z,762.0000
2024-04-23T12:03:18.534Z,761.0000
2024-04-23T12:04:20.903Z,762.0000
2024-04-23T12:05:23.125Z,761.0000
2024-04-23T12:06:25.302Z,761.0000
2024-04-23T12:07:27.490Z,757.0000
2024-04-23T12:08:27.582Z,754.0000
2024-04-23T12:09:29.807Z,735.0000
2024-04-23T12:10:32.011Z,722.0000
2024-04-23T12:11:34.532Z,724.0000
2024-04-23T12:12:36.430Z,731.0000
2024-04-23T12:13:38.714Z,744.0000